sensor_id;sensor_type;location;lat;lon;timestamp;temperature;humidity
56234;DHT22;42141;53.240;6.580;2023-06-26T00:01:17;22.70;99.90
56234;DHT22;42141;53.240;6.580;2023-06-26T00:03:42;22.70;99.90
56234;DHT22;42141;53.240;6.580;2023-06-26T00:06:08;22.70;99.90
56234;DHT22;42141;53.240;6.580;2023-06-26T00:08:33;22.60;99.90
56234;DHT22;42141;53.240;6.580;2023-06-26T00:11:05;22.60;99.90
56234;DHT22;42141;53.240;6.580;2023-06-26T00:13:31;22.60;99.90
56234;DHT22;42141;53.240;6.580;2023-06-26T00:15:56;22.60;99.90
56234;DHT22;42141;53.240;6.580;2023-06-26T00:18:22;22.50;99.90
56234;DHT22;42141;53.240;6.580;2023-06-26T00:20:49;22.50;99.90
56234;DHT22;42141;53.240;6.580;2023-06-26T00:23:16;22.50;99.90
56234;DHT22;42141;53.240;6.580;2023-06-26T00:25:43;22.40;99.90
56234;DHT22;42141;53.240;6.580;2023-06-26T00:28:09;22.40;99.90
56234;DHT22;42141;53.240;6.580;2023-06-26T00:30:35;22.40;99.90
56234;DHT22;42141;53.240;6.580;2023-06-26T00:33:01;22.40;99.90
56234;DHT22;42141;53.240;6.580;2023-06-26T00:35:26;22.90;99.90
56234;DHT22;42141;53.240;6.580;2023-06-26T00:37:52;22.40;99.90
56234;DHT22;42141;53.240;6.580;2023-06-26T00:40:18;22.40;99.90
56234;DHT22;42141;53.240;6.580;2023-06-26T00:42:43;22.30;99.90
56234;DHT22;42141;53.240;6.580;2023-06-26T00:45:09;22.90;99.90
56234;DHT22;42141;53.240;6.580;2023-06-26T00:47:35;22.40;99.90
56234;DHT22;42141;53.240;6.580;2023-06-26T00:50:01;22.30;99.90
56234;DHT22;42141;53.240;6.580;2023-06-26T00:52:27;22.30;99.90
56234;DHT22;42141;53.240;6.580;2023-06-26T00:54:53;22.30;99.90
56234;DHT22;42141;53.240;6.580;2023-06-26T00:57:19;22.30;99.90
56234;DHT22;42141;53.240;6.580;2023-06-26T00:59:45;22.30;99.90
56234;DHT22;42141;53.240;6.580;2023-06-26T01:02:11;22.30;99.90
56234;DHT22;42141;53.240;6.580;2023-06-26T01:04:36;22.30;99.90
56234;DHT22;42141;53.240;6.580;2023-06-26T01:07:03;22.20;99.90
56234;DHT22;42141;53.240;6.580;2023-06-26T01:09:30;22.20;99.90
56234;DHT22;42141;53.240;6.580;2023-06-26T01:11:56;22.20;99.90
56234;DHT22;42141;53.240;6.580;2023-06-26T01:14:21;22.10;99.90
56234;DHT22;42141;53.240;6.580;2023-06-26T01:16:49;22.20;99.90
56234;DHT22;42141;53.240;6.580;2023-06-26T01:19:24;22.10;99.90
56234;DHT22;42141;53.240;6.580;2023-06-26T01:21:56;22.10;99.90
56234;DHT22;42141;53.240;6.580;2023-06-26T01:24:25;22.00;99.90
56234;DHT22;42141;53.240;6.580;2023-06-26T01:26:53;22.00;99.90
56234;DHT22;42141;53.240;6.580;2023-06-26T01:29:19;22.00;99.90
56234;DHT22;42141;53.240;6.580;2023-06-26T01:31:49;22.00;99.90
56234;DHT22;42141;53.240;6.580;2023-06-26T01:34:18;22.00;99.90
56234;DHT22;42141;53.240;6.580;2023-06-26T01:36:45;22.00;99.90
56234;DHT22;42141;53.240;6.580;2023-06-26T01:39:15;22.00;99.90
56234;DHT22;42141;53.240;6.580;2023-06-26T01:41:41;22.00;99.90
56234;DHT22;42141;53.240;6.580;2023-06-26T01:44:25;21.90;99.90
56234;DHT22;42141;53.240;6.580;2023-06-26T01:49:42;21.90;99.90
56234;DHT22;42141;53.240;6.580;2023-06-26T01:53:21;21.90;99.90
56234;DHT22;42141;53.240;6.580;2023-06-26T01:55:47;21.80;99.90
56234;DHT22;42141;53.240;6.580;2023-06-26T01:58:17;21.70;99.90
56234;DHT22;42141;53.240;6.580;2023-06-26T02:00:44;21.70;99.90
56234;DHT22;42141;53.240;6.580;2023-06-26T02:03:09;21.70;99.90
56234;DHT22;42141;53.240;6.580;2023-06-26T02:05:35;21.70;99.90
56234;DHT22;42141;53.240;6.580;2023-06-26T02:08:01;21.70;99.90
56234;DHT22;42141;53.240;6.580;2023-06-26T02:10:28;21.60;99.90
56234;DHT22;42141;53.240;6.580;2023-06-26T02:12:54;21.70;99.90
56234;DHT22;42141;53.240;6.580;2023-06-26T02:15:19;21.60;99.90
56234;DHT22;42141;53.240;6.580;2023-06-26T02:17:45;21.60;99.90
56234;DHT22;42141;53.240;6.580;2023-06-26T02:20:14;21.60;99.90
56234;DHT22;42141;53.240;6.580;2023-06-26T02:22:39;21.60;99.90
56234;DHT22;42141;53.240;6.580;2023-06-26T02:25:06;21.60;99.90
56234;DHT22;42141;53.240;6.580;2023-06-26T02:27:31;21.60;99.90
56234;DHT22;42141;53.240;6.580;2023-06-26T02:29:57;21.70;99.90
56234;DHT22;42141;53.240;6.580;2023-06-26T02:32:23;21.80;99.90
56234;DHT22;42141;53.240;6.580;2023-06-26T02:34:49;21.90;99.90
56234;DHT22;42141;53.240;6.580;2023-06-26T02:37:17;21.90;99.90
56234;DHT22;42141;53.240;6.580;2023-06-26T02:39:43;21.90;99.90
56234;DHT22;42141;53.240;6.580;2023-06-26T02:42:09;22.00;99.90
56234;DHT22;42141;53.240;6.580;2023-06-26T02:44:34;22.10;99.90
56234;DHT22;42141;53.240;6.580;2023-06-26T02:47:00;22.10;99.90
56234;DHT22;42141;53.240;6.580;2023-06-26T02:49:25;22.10;99.90
56234;DHT22;42141;53.240;6.580;2023-06-26T02:51:51;22.10;99.90
56234;DHT22;42141;53.240;6.580;2023-06-26T02:54:17;22.20;99.90
56234;DHT22;42141;53.240;6.580;2023-06-26T02:56:43;22.20;99.90
56234;DHT22;42141;53.240;6.580;2023-06-26T02:59:08;22.20;99.90
56234;DHT22;42141;53.240;6.580;2023-06-26T03:01:34;22.20;99.90
56234;DHT22;42141;53.240;6.580;2023-06-26T03:04:00;22.20;99.90
56234;DHT22;42141;53.240;6.580;2023-06-26T03:06:26;22.30;99.90
56234;DHT22;42141;53.240;6.580;2023-06-26T03:08:53;22.30;99.90
56234;DHT22;42141;53.240;6.580;2023-06-26T03:11:19;22.30;99.90
56234;DHT22;42141;53.240;6.580;2023-06-26T03:13:45;22.30;99.90
56234;DHT22;42141;53.240;6.580;2023-06-26T03:16:11;22.30;99.90
56234;DHT22;42141;53.240;6.580;2023-06-26T03:18:36;22.30;99.90
56234;DHT22;42141;53.240;6.580;2023-06-26T03:21:02;22.30;99.90
56234;DHT22;42141;53.240;6.580;2023-06-26T03:23:28;22.30;99.90
56234;DHT22;42141;53.240;6.580;2023-06-26T03:25:54;22.30;99.90
56234;DHT22;42141;53.240;6.580;2023-06-26T03:28:19;22.30;99.90
56234;DHT22;42141;53.240;6.580;2023-06-26T03:30:45;22.30;99.90
56234;DHT22;42141;53.240;6.580;2023-06-26T03:33:11;22.30;99.90
56234;DHT22;42141;53.240;6.580;2023-06-26T03:35:37;22.30;99.90
56234;DHT22;42141;53.240;6.580;2023-06-26T03:38:04;22.20;99.90
56234;DHT22;42141;53.240;6.580;2023-06-26T03:40:29;22.20;99.90
56234;DHT22;42141;53.240;6.580;2023-06-26T03:42:55;22.20;99.90
56234;DHT22;42141;53.240;6.580;2023-06-26T03:45:21;22.20;99.90
56234;DHT22;42141;53.240;6.580;2023-06-26T03:47:46;22.10;99.90
56234;DHT22;42141;53.240;6.580;2023-06-26T03:50:18;22.10;99.90
56234;DHT22;42141;53.240;6.580;2023-06-26T03:52:45;22.10;99.90
56234;DHT22;42141;53.240;6.580;2023-06-26T03:55:10;22.10;99.90
56234;DHT22;42141;53.240;6.580;2023-06-26T03:57:36;22.00;99.90
56234;DHT22;42141;53.240;6.580;2023-06-26T04:00:03;22.00;99.90
56234;DHT22;42141;53.240;6.580;2023-06-26T04:02:36;22.00;99.90
56234;DHT22;42141;53.240;6.580;2023-06-26T04:05:02;22.00;99.90
56234;DHT22;42141;53.240;6.580;2023-06-26T04:07:29;21.90;99.90
56234;DHT22;42141;53.240;6.580;2023-06-26T04:09:57;21.90;99.90
56234;DHT22;42141;53.240;6.580;2023-06-26T04:12:23;21.90;99.90
56234;DHT22;42141;53.240;6.580;2023-06-26T04:14:48;21.90;99.90
56234;DHT22;42141;53.240;6.580;2023-06-26T04:17:14;21.90;99.90
56234;DHT22;42141;53.240;6.580;2023-06-26T04:19:40;21.90;99.90
56234;DHT22;42141;53.240;6.580;2023-06-26T04:22:05;21.80;99.90
56234;DHT22;42141;53.240;6.580;2023-06-26T04:24:31;21.80;99.90
56234;DHT22;42141;53.240;6.580;2023-06-26T04:26:57;21.80;99.90
56234;DHT22;42141;53.240;6.580;2023-06-26T04:29:26;21.80;99.90
56234;DHT22;42141;53.240;6.580;2023-06-26T04:31:53;21.50;99.90
56234;DHT22;42141;53.240;6.580;2023-06-26T04:34:26;21.90;99.90
56234;DHT22;42141;53.240;6.580;2023-06-26T04:36:52;21.90;99.90
56234;DHT22;42141;53.240;6.580;2023-06-26T04:39:18;22.00;99.90
56234;DHT22;42141;53.240;6.580;2023-06-26T04:41:44;22.00;99.90
56234;DHT22;42141;53.240;6.580;2023-06-26T04:44:10;22.10;99.90
56234;DHT22;42141;53.240;6.580;2023-06-26T04:46:37;22.20;99.90
56234;DHT22;42141;53.240;6.580;2023-06-26T04:49:09;22.20;99.90
56234;DHT22;42141;53.240;6.580;2023-06-26T04:51:35;22.20;99.90
56234;DHT22;42141;53.240;6.580;2023-06-26T04:54:09;21.40;99.90
56234;DHT22;42141;53.240;6.580;2023-06-26T04:56:36;22.30;99.90
56234;DHT22;42141;53.240;6.580;2023-06-26T04:59:02;22.30;99.90
56234;DHT22;42141;53.240;6.580;2023-06-26T05:01:29;22.30;99.90
56234;DHT22;42141;53.240;6.580;2023-06-26T05:03:56;22.20;99.90
56234;DHT22;42141;53.240;6.580;2023-06-26T05:06:22;22.20;99.90
56234;DHT22;42141;53.240;6.580;2023-06-26T05:08:48;22.00;99.90
56234;DHT22;42141;53.240;6.580;2023-06-26T05:11:14;21.90;99.90
56234;DHT22;42141;53.240;6.580;2023-06-26T05:13:40;21.90;99.90
56234;DHT22;42141;53.240;6.580;2023-06-26T05:16:06;21.80;99.90
56234;DHT22;42141;53.240;6.580;2023-06-26T05:18:34;21.70;99.90
56234;DHT22;42141;53.240;6.580;2023-06-26T05:21:00;21.60;99.90
56234;DHT22;42141;53.240;6.580;2023-06-26T05:23:27;21.50;99.90
56234;DHT22;42141;53.240;6.580;2023-06-26T05:25:54;21.40;99.90
56234;DHT22;42141;53.240;6.580;2023-06-26T05:28:20;21.30;99.90
56234;DHT22;42141;53.240;6.580;2023-06-26T05:30:46;21.30;99.90
56234;DHT22;42141;53.240;6.580;2023-06-26T05:33:14;21.20;99.90
56234;DHT22;42141;53.240;6.580;2023-06-26T05:35:45;21.10;99.90
56234;DHT22;42141;53.240;6.580;2023-06-26T05:38:12;21.00;99.90
56234;DHT22;42141;53.240;6.580;2023-06-26T05:40:39;22.60;99.90
56234;DHT22;42141;53.240;6.580;2023-06-26T05:43:06;20.90;99.90
56234;DHT22;42141;53.240;6.580;2023-06-26T05:45:33;20.70;99.90
56234;DHT22;42141;53.240;6.580;2023-06-26T05:47:58;20.70;99.90
56234;DHT22;42141;53.240;6.580;2023-06-26T05:50:25;20.70;99.90
56234;DHT22;42141;53.240;6.580;2023-06-26T05:52:51;20.60;99.90
56234;DHT22;42141;53.240;6.580;2023-06-26T05:55:17;20.50;99.90
56234;DHT22;42141;53.240;6.580;2023-06-26T05:57:43;20.50;99.90
56234;DHT22;42141;53.240;6.580;2023-06-26T06:00:11;20.40;99.90
56234;DHT22;42141;53.240;6.580;2023-06-26T06:02:38;20.40;99.90
56234;DHT22;42141;53.240;6.580;2023-06-26T06:05:04;20.40;99.90
56234;DHT22;42141;53.240;6.580;2023-06-26T06:07:34;20.40;99.90
56234;DHT22;42141;53.240;6.580;2023-06-26T06:10:02;20.40;99.90
56234;DHT22;42141;53.240;6.580;2023-06-26T06:12:28;20.50;99.90
56234;DHT22;42141;53.240;6.580;2023-06-26T06:14:54;20.70;99.90
56234;DHT22;42141;53.240;6.580;2023-06-26T06:17:20;20.80;99.90
56234;DHT22;42141;53.240;6.580;2023-06-26T06:19:46;20.90;99.90
56234;DHT22;42141;53.240;6.580;2023-06-26T06:22:12;20.90;99.90
56234;DHT22;42141;53.240;6.580;2023-06-26T06:24:38;20.90;99.90
56234;DHT22;42141;53.240;6.580;2023-06-26T06:27:03;20.90;99.90
56234;DHT22;42141;53.240;6.580;2023-06-26T06:29:29;20.80;99.90
56234;DHT22;42141;53.240;6.580;2023-06-26T06:31:55;20.80;99.90
56234;DHT22;42141;53.240;6.580;2023-06-26T06:34:21;20.80;99.90
56234;DHT22;42141;53.240;6.580;2023-06-26T06:36:46;20.90;99.90
56234;DHT22;42141;53.240;6.580;2023-06-26T06:39:12;20.90;99.90
56234;DHT22;42141;53.240;6.580;2023-06-26T06:41:38;21.00;99.90
56234;DHT22;42141;53.240;6.580;2023-06-26T06:44:04;20.80;99.90
56234;DHT22;42141;53.240;6.580;2023-06-26T06:46:30;21.10;99.90
56234;DHT22;42141;53.240;6.580;2023-06-26T06:48:55;21.20;99.90
56234;DHT22;42141;53.240;6.580;2023-06-26T06:51:22;21.40;99.90
56234;DHT22;42141;53.240;6.580;2023-06-26T06:53:48;21.50;99.90
56234;DHT22;42141;53.240;6.580;2023-06-26T06:56:14;21.50;99.90
56234;DHT22;42141;53.240;6.580;2023-06-26T06:58:39;21.60;99.90
56234;DHT22;42141;53.240;6.580;2023-06-26T07:01:09;21.70;99.90
56234;DHT22;42141;53.240;6.580;2023-06-26T07:03:35;21.80;99.90
56234;DHT22;42141;53.240;6.580;2023-06-26T07:06:01;21.90;99.90
56234;DHT22;42141;53.240;6.580;2023-06-26T07:08:27;22.00;99.90
56234;DHT22;42141;53.240;6.580;2023-06-26T07:10:52;22.10;99.90
56234;DHT22;42141;53.240;6.580;2023-06-26T07:13:18;22.20;99.90
56234;DHT22;42141;53.240;6.580;2023-06-26T07:15:45;22.30;99.90
56234;DHT22;42141;53.240;6.580;2023-06-26T07:18:11;22.40;99.90
56234;DHT22;42141;53.240;6.580;2023-06-26T07:20:36;22.50;99.90
56234;DHT22;42141;53.240;6.580;2023-06-26T07:23:02;22.50;99.90
56234;DHT22;42141;53.240;6.580;2023-06-26T07:25:28;22.60;99.90
56234;DHT22;42141;53.240;6.580;2023-06-26T07:27:54;22.70;99.90
56234;DHT22;42141;53.240;6.580;2023-06-26T07:30:19;22.70;99.90
56234;DHT22;42141;53.240;6.580;2023-06-26T07:32:45;22.60;99.90
56234;DHT22;42141;53.240;6.580;2023-06-26T07:35:11;22.60;99.90
56234;DHT22;42141;53.240;6.580;2023-06-26T07:37:37;22.60;99.90
56234;DHT22;42141;53.240;6.580;2023-06-26T07:40:03;22.60;99.90
56234;DHT22;42141;53.240;6.580;2023-06-26T07:42:29;22.70;99.90
56234;DHT22;42141;53.240;6.580;2023-06-26T07:44:55;22.70;99.90
56234;DHT22;42141;53.240;6.580;2023-06-26T07:47:24;22.70;99.90
56234;DHT22;42141;53.240;6.580;2023-06-26T07:49:50;22.70;99.90
56234;DHT22;42141;53.240;6.580;2023-06-26T07:52:16;22.70;99.90
56234;DHT22;42141;53.240;6.580;2023-06-26T07:54:41;22.60;99.90
56234;DHT22;42141;53.240;6.580;2023-06-26T07:57:07;22.50;99.90
56234;DHT22;42141;53.240;6.580;2023-06-26T07:59:34;22.50;99.90
56234;DHT22;42141;53.240;6.580;2023-06-26T08:02:00;22.60;99.90
56234;DHT22;42141;53.240;6.580;2023-06-26T08:04:28;22.70;99.90
56234;DHT22;42141;53.240;6.580;2023-06-26T08:06:57;22.80;99.90
56234;DHT22;42141;53.240;6.580;2023-06-26T08:09:24;22.80;99.90
56234;DHT22;42141;53.240;6.580;2023-06-26T08:11:51;22.70;99.90
56234;DHT22;42141;53.240;6.580;2023-06-26T08:14:17;22.60;99.90
56234;DHT22;42141;53.240;6.580;2023-06-26T08:16:43;22.70;99.90
56234;DHT22;42141;53.240;6.580;2023-06-26T08:19:10;22.70;99.90
56234;DHT22;42141;53.240;6.580;2023-06-26T08:21:35;22.70;99.90
56234;DHT22;42141;53.240;6.580;2023-06-26T08:24:01;22.80;99.90
56234;DHT22;42141;53.240;6.580;2023-06-26T08:26:27;23.00;99.90
56234;DHT22;42141;53.240;6.580;2023-06-26T08:28:53;23.10;99.70
56234;DHT22;42141;53.240;6.580;2023-06-26T08:31:19;23.10;99.60
56234;DHT22;42141;53.240;6.580;2023-06-26T08:33:46;23.10;99.50
56234;DHT22;42141;53.240;6.580;2023-06-26T08:36:12;23.30;99.50
56234;DHT22;42141;53.240;6.580;2023-06-26T08:38:38;23.40;99.30
56234;DHT22;42141;53.240;6.580;2023-06-26T08:41:09;23.40;99.20
56234;DHT22;42141;53.240;6.580;2023-06-26T08:43:35;23.30;98.90
56234;DHT22;42141;53.240;6.580;2023-06-26T08:46:02;23.30;98.90
56234;DHT22;42141;53.240;6.580;2023-06-26T08:48:32;23.30;98.80
56234;DHT22;42141;53.240;6.580;2023-06-26T08:51:01;23.40;98.50
56234;DHT22;42141;53.240;6.580;2023-06-26T08:53:48;23.10;98.50
56234;DHT22;42141;53.240;6.580;2023-06-26T08:56:17;23.10;98.60
56234;DHT22;42141;53.240;6.580;2023-06-26T08:58:44;23.20;98.70
56234;DHT22;42141;53.240;6.580;2023-06-26T09:01:10;23.50;98.60
56234;DHT22;42141;53.240;6.580;2023-06-26T09:03:36;23.70;98.40
56234;DHT22;42141;53.240;6.580;2023-06-26T09:06:02;23.90;98.00
56234;DHT22;42141;53.240;6.580;2023-06-26T09:08:28;23.90;97.80
56234;DHT22;42141;53.240;6.580;2023-06-26T09:10:54;23.80;97.70
56234;DHT22;42141;53.240;6.580;2023-06-26T09:13:20;23.70;97.60
56234;DHT22;42141;53.240;6.580;2023-06-26T09:15:46;23.80;97.50
56234;DHT22;42141;53.240;6.580;2023-06-26T09:18:13;23.90;97.40
56234;DHT22;42141;53.240;6.580;2023-06-26T09:20:42;24.00;97.30
56234;DHT22;42141;53.240;6.580;2023-06-26T09:23:08;23.80;97.10
56234;DHT22;42141;53.240;6.580;2023-06-26T09:25:39;23.70;96.90
56234;DHT22;42141;53.240;6.580;2023-06-26T09:28:05;23.70;96.90
56234;DHT22;42141;53.240;6.580;2023-06-26T09:30:34;23.80;96.70
56234;DHT22;42141;53.240;6.580;2023-06-26T09:33:19;23.80;96.20
56234;DHT22;42141;53.240;6.580;2023-06-26T09:35:46;23.70;96.20
56234;DHT22;42141;53.240;6.580;2023-06-26T09:38:13;23.70;96.60
56234;DHT22;42141;53.240;6.580;2023-06-26T09:40:39;23.70;96.50
56234;DHT22;42141;53.240;6.580;2023-06-26T09:43:05;23.90;96.40
56234;DHT22;42141;53.240;6.580;2023-06-26T09:45:36;24.00;96.20
56234;DHT22;42141;53.240;6.580;2023-06-26T09:48:05;23.90;95.90
56234;DHT22;42141;53.240;6.580;2023-06-26T09:50:33;23.70;95.90
56234;DHT22;42141;53.240;6.580;2023-06-26T09:53:13;23.60;96.00
56234;DHT22;42141;53.240;6.580;2023-06-26T09:55:39;23.50;95.60
56234;DHT22;42141;53.240;6.580;2023-06-26T09:58:06;23.40;95.80
56234;DHT22;42141;53.240;6.580;2023-06-26T10:00:32;23.40;95.70
56234;DHT22;42141;53.240;6.580;2023-06-26T10:03:01;23.60;95.50
56234;DHT22;42141;53.240;6.580;2023-06-26T10:05:28;23.80;95.40
56234;DHT22;42141;53.240;6.580;2023-06-26T10:07:54;23.80;95.10
56234;DHT22;42141;53.240;6.580;2023-06-26T10:10:21;24.00;94.90
56234;DHT22;42141;53.240;6.580;2023-06-26T10:12:49;24.10;94.50
56234;DHT22;42141;53.240;6.580;2023-06-26T10:15:17;24.20;94.40
56234;DHT22;42141;53.240;6.580;2023-06-26T10:17:46;24.20;94.30
56234;DHT22;42141;53.240;6.580;2023-06-26T10:20:14;24.00;94.00
56234;DHT22;42141;53.240;6.580;2023-06-26T10:22:45;24.00;93.90
56234;DHT22;42141;53.240;6.580;2023-06-26T10:25:16;24.10;93.80
56234;DHT22;42141;53.240;6.580;2023-06-26T10:27:45;24.30;93.70
56234;DHT22;42141;53.240;6.580;2023-06-26T10:30:17;24.60;93.40
56234;DHT22;42141;53.240;6.580;2023-06-26T10:32:45;24.80;92.70
56234;DHT22;42141;53.240;6.580;2023-06-26T10:35:12;25.00;92.60
56234;DHT22;42141;53.240;6.580;2023-06-26T10:37:42;24.90;92.30
56234;DHT22;42141;53.240;6.580;2023-06-26T10:40:09;24.80;92.30
56234;DHT22;42141;53.240;6.580;2023-06-26T10:42:38;24.80;92.20
56234;DHT22;42141;53.240;6.580;2023-06-26T10:45:13;24.60;91.90
56234;DHT22;42141;53.240;6.580;2023-06-26T10:47:40;24.70;91.90
56234;DHT22;42141;53.240;6.580;2023-06-26T10:50:35;24.60;91.90
56234;DHT22;42141;53.240;6.580;2023-06-26T10:56:03;24.10;91.80
56234;DHT22;42141;53.240;6.580;2023-06-26T11:03:38;23.70;92.40
56234;DHT22;42141;53.240;6.580;2023-06-26T11:06:15;23.90;92.30
56234;DHT22;42141;53.240;6.580;2023-06-26T11:08:48;24.10;91.60
56234;DHT22;42141;53.240;6.580;2023-06-26T11:11:15;24.20;91.70
56234;DHT22;42141;53.240;6.580;2023-06-26T11:13:41;24.00;91.80
56234;DHT22;42141;53.240;6.580;2023-06-26T11:16:07;23.80;91.70
56234;DHT22;42141;53.240;6.580;2023-06-26T11:18:33;24.30;91.80
56234;DHT22;42141;53.240;6.580;2023-06-26T11:21:08;23.80;91.60
56234;DHT22;42141;53.240;6.580;2023-06-26T11:23:36;23.90;91.40
56234;DHT22;42141;53.240;6.580;2023-06-26T11:26:19;24.00;91.20
56234;DHT22;42141;53.240;6.580;2023-06-26T11:28:56;24.10;91.20
56234;DHT22;42141;53.240;6.580;2023-06-26T11:31:27;25.00;90.90
56234;DHT22;42141;53.240;6.580;2023-06-26T11:33:54;24.10;90.60
56234;DHT22;42141;53.240;6.580;2023-06-26T11:36:23;24.00;90.60
56234;DHT22;42141;53.240;6.580;2023-06-26T11:38:58;24.20;90.50
56234;DHT22;42141;53.240;6.580;2023-06-26T11:41:26;24.40;90.60
56234;DHT22;42141;53.240;6.580;2023-06-26T11:43:52;24.60;90.40
56234;DHT22;42141;53.240;6.580;2023-06-26T11:46:21;24.60;90.20
56234;DHT22;42141;53.240;6.580;2023-06-26T11:48:48;24.70;90.10
56234;DHT22;42141;53.240;6.580;2023-06-26T11:51:15;24.80;90.20
56234;DHT22;42141;53.240;6.580;2023-06-26T11:53:41;24.80;90.20
56234;DHT22;42141;53.240;6.580;2023-06-26T11:56:09;24.90;89.80
56234;DHT22;42141;53.240;6.580;2023-06-26T11:58:35;24.90;89.20
56234;DHT22;42141;53.240;6.580;2023-06-26T12:01:01;25.00;89.00
56234;DHT22;42141;53.240;6.580;2023-06-26T12:03:27;25.00;88.50
56234;DHT22;42141;53.240;6.580;2023-06-26T12:05:52;24.90;87.90
56234;DHT22;42141;53.240;6.580;2023-06-26T12:08:18;25.00;88.00
56234;DHT22;42141;53.240;6.580;2023-06-26T12:10:45;25.10;88.80
56234;DHT22;42141;53.240;6.580;2023-06-26T12:13:11;25.20;87.10
56234;DHT22;42141;53.240;6.580;2023-06-26T12:15:36;25.10;86.00
56234;DHT22;42141;53.240;6.580;2023-06-26T12:18:08;25.20;86.00
56234;DHT22;42141;53.240;6.580;2023-06-26T12:20:39;25.30;85.60
56234;DHT22;42141;53.240;6.580;2023-06-26T12:23:12;25.20;85.10
56234;DHT22;42141;53.240;6.580;2023-06-26T12:25:38;25.10;84.80
56234;DHT22;42141;53.240;6.580;2023-06-26T12:28:03;25.00;82.70
56234;DHT22;42141;53.240;6.580;2023-06-26T12:30:40;25.10;85.40
56234;DHT22;42141;53.240;6.580;2023-06-26T12:33:13;25.30;85.50
56234;DHT22;42141;53.240;6.580;2023-06-26T12:35:39;25.40;83.20
56234;DHT22;42141;53.240;6.580;2023-06-26T12:38:07;25.30;82.90
56234;DHT22;42141;53.240;6.580;2023-06-26T12:40:45;25.40;82.50
56234;DHT22;42141;53.240;6.580;2023-06-26T12:43:11;25.40;81.40
56234;DHT22;42141;53.240;6.580;2023-06-26T12:45:47;25.30;81.30
56234;DHT22;42141;53.240;6.580;2023-06-26T12:48:13;25.10;81.00
56234;DHT22;42141;53.240;6.580;2023-06-26T12:50:48;24.90;81.20
56234;DHT22;42141;53.240;6.580;2023-06-26T12:53:16;24.80;79.20
56234;DHT22;42141;53.240;6.580;2023-06-26T12:55:41;24.60;81.00
56234;DHT22;42141;53.240;6.580;2023-06-26T12:58:07;24.60;81.20
56234;DHT22;42141;53.240;6.580;2023-06-26T13:00:33;24.90;81.80
56234;DHT22;42141;53.240;6.580;2023-06-26T13:02:59;25.00;81.70
56234;DHT22;42141;53.240;6.580;2023-06-26T13:05:25;25.10;81.20
56234;DHT22;42141;53.240;6.580;2023-06-26T13:07:50;25.10;80.90
56234;DHT22;42141;53.240;6.580;2023-06-26T13:10:16;25.10;80.50
56234;DHT22;42141;53.240;6.580;2023-06-26T13:12:42;25.10;80.80
56234;DHT22;42141;53.240;6.580;2023-06-26T13:15:08;25.00;81.20
56234;DHT22;42141;53.240;6.580;2023-06-26T13:17:35;24.90;80.90
56234;DHT22;42141;53.240;6.580;2023-06-26T13:20:00;24.80;80.90
56234;DHT22;42141;53.240;6.580;2023-06-26T13:22:27;24.70;81.00
56234;DHT22;42141;53.240;6.580;2023-06-26T13:24:53;24.60;81.50
56234;DHT22;42141;53.240;6.580;2023-06-26T13:27:18;24.60;82.00
56234;DHT22;42141;53.240;6.580;2023-06-26T13:29:45;24.50;82.40
56234;DHT22;42141;53.240;6.580;2023-06-26T13:32:11;24.30;83.00
56234;DHT22;42141;53.240;6.580;2023-06-26T13:34:37;24.00;83.80
56234;DHT22;42141;53.240;6.580;2023-06-26T13:37:03;23.80;84.70
56234;DHT22;42141;53.240;6.580;2023-06-26T13:39:29;23.60;85.40
56234;DHT22;42141;53.240;6.580;2023-06-26T13:41:54;23.50;86.60
56234;DHT22;42141;53.240;6.580;2023-06-26T13:44:20;23.50;86.70
56234;DHT22;42141;53.240;6.580;2023-06-26T13:46:46;23.40;87.10
56234;DHT22;42141;53.240;6.580;2023-06-26T13:49:11;23.30;87.80
56234;DHT22;42141;53.240;6.580;2023-06-26T13:51:37;23.10;88.50
56234;DHT22;42141;53.240;6.580;2023-06-26T13:54:03;23.00;88.90
56234;DHT22;42141;53.240;6.580;2023-06-26T13:56:29;22.90;89.00
56234;DHT22;42141;53.240;6.580;2023-06-26T13:58:56;22.80;89.20
56234;DHT22;42141;53.240;6.580;2023-06-26T14:01:24;22.80;89.20
56234;DHT22;42141;53.240;6.580;2023-06-26T14:03:50;22.80;89.70
56234;DHT22;42141;53.240;6.580;2023-06-26T14:06:16;22.70;89.60
56234;DHT22;42141;53.240;6.580;2023-06-26T14:08:41;22.70;89.70
56234;DHT22;42141;53.240;6.580;2023-06-26T14:11:07;22.70;90.00
56234;DHT22;42141;53.240;6.580;2023-06-26T14:13:33;22.60;90.00
56234;DHT22;42141;53.240;6.580;2023-06-26T14:15:58;22.60;90.00
56234;DHT22;42141;53.240;6.580;2023-06-26T14:18:24;22.70;89.80
56234;DHT22;42141;53.240;6.580;2023-06-26T14:20:50;22.90;89.80
56234;DHT22;42141;53.240;6.580;2023-06-26T14:23:15;23.10;89.80
56234;DHT22;42141;53.240;6.580;2023-06-26T14:25:41;23.00;88.70
56234;DHT22;42141;53.240;6.580;2023-06-26T14:28:07;23.10;88.30
56234;DHT22;42141;53.240;6.580;2023-06-26T14:30:32;23.10;88.30
56234;DHT22;42141;53.240;6.580;2023-06-26T14:32:58;23.00;88.00
56234;DHT22;42141;53.240;6.580;2023-06-26T14:35:24;22.80;88.40
56234;DHT22;42141;53.240;6.580;2023-06-26T14:37:49;22.80;88.90
56234;DHT22;42141;53.240;6.580;2023-06-26T14:40:15;22.90;89.00
56234;DHT22;42141;53.240;6.580;2023-06-26T14:42:41;22.90;89.10
56234;DHT22;42141;53.240;6.580;2023-06-26T14:45:08;22.70;89.00
56234;DHT22;42141;53.240;6.580;2023-06-26T14:47:34;22.60;89.20
56234;DHT22;42141;53.240;6.580;2023-06-26T14:50:03;22.60;88.90
56234;DHT22;42141;53.240;6.580;2023-06-26T14:52:29;22.50;88.90
56234;DHT22;42141;53.240;6.580;2023-06-26T14:54:54;22.40;89.40
56234;DHT22;42141;53.240;6.580;2023-06-26T14:57:20;22.30;89.70
56234;DHT22;42141;53.240;6.580;2023-06-26T14:59:46;22.30;89.90
56234;DHT22;42141;53.240;6.580;2023-06-26T15:02:12;22.20;90.00
56234;DHT22;42141;53.240;6.580;2023-06-26T15:04:37;22.00;90.00
56234;DHT22;42141;53.240;6.580;2023-06-26T15:07:03;21.90;90.00
56234;DHT22;42141;53.240;6.580;2023-06-26T15:09:29;21.90;90.20
56234;DHT22;42141;53.240;6.580;2023-06-26T15:11:57;22.10;90.40
56234;DHT22;42141;53.240;6.580;2023-06-26T15:14:23;22.30;90.10
56234;DHT22;42141;53.240;6.580;2023-06-26T15:16:48;22.50;89.80
56234;DHT22;42141;53.240;6.580;2023-06-26T15:19:14;22.70;89.60
56234;DHT22;42141;53.240;6.580;2023-06-26T15:21:40;22.60;89.20
56234;DHT22;42141;53.240;6.580;2023-06-26T15:24:06;22.60;89.40
56234;DHT22;42141;53.240;6.580;2023-06-26T15:26:32;22.60;89.40
56234;DHT22;42141;53.240;6.580;2023-06-26T15:28:58;22.60;89.00
56234;DHT22;42141;53.240;6.580;2023-06-26T15:31:23;22.70;89.10
56234;DHT22;42141;53.240;6.580;2023-06-26T15:33:49;22.70;88.60
56234;DHT22;42141;53.240;6.580;2023-06-26T15:36:15;22.60;88.40
56234;DHT22;42141;53.240;6.580;2023-06-26T15:38:41;22.30;88.80
56234;DHT22;42141;53.240;6.580;2023-06-26T15:41:06;23.00;89.30